31.7°F
Current conditions from King Hill
Updated every 5 minutes
 
  Saturday November 1, 2014

Station Historical Data
Daily Summary for July 10, 2011 Units:  Metric    English   Both
« Previous Day
Next Day »
Daily Weekly Monthly Yearly Custom
  High: Low: Average:
Temperature: 26.8 °C 13.2 °C 20.4 °C
Dew Point: 17.5 °C 10.7 °C 14 °C
Humidity: 85% 49% 68%
Wind Speed: 9.7km/h 0km/h 3.1km/h
Wind Gust: 22.5km/h - -
Wind- - SSW
Pressure: 1016.5 hPa 1011.7 hPa -
Precipitation: 0 mm    
Historical Graphs
 
 
Tabular Data for July 10, 2011
Time Temperature Dew Point Pressure Wind Wind Speed Wind Gust Humidity Daily Rainfall
00:05 13.8 °C 10.8 °C 1014.4 hPa Calm   1.6 km/h 82% 0 mm
00:10 13.7 °C 10.9 °C 1014.4 hPa Calm   3.2 km/h 83% 0 mm
00:15 13.6 °C 10.7 °C 1014.4 hPa Calm   3.2 km/h 83% 0 mm
00:20 13.5 °C 10.7 °C 1014.4 hPa Calm     83% 0 mm
00:25 13.4 °C 10.8 °C 1014.4 hPa Calm     84% 0 mm
00:30 13.4 °C 10.8 °C 1014.8 hPa Calm   1.6 km/h 84% 0 mm
00:40 13.3 °C 10.8 °C 1014.8 hPa Calm   3.2 km/h 85% 0 mm
00:45 13.2 °C 10.8 °C 1014.8 hPa NW 1.6 km/h 6.4 km/h 85% 0 mm
00:50 13.2 °C 10.8 °C 1014.8 hPa WNW 1.6 km/h 6.4 km/h 85% 0 mm
00:55 13.3 °C 10.7 °C 1014.8 hPa Calm   8 km/h 84% 0 mm
01:00 13.5 °C 10.8 °C 1014.8 hPa SW 4.8 km/h 8 km/h 84% 0 mm
01:05 13.8 °C 11.1 °C 1014.8 hPa SSW 1.6 km/h 9.7 km/h 84% 0 mm
01:10 13.9 °C 11.1 °C 1014.8 hPa SSW 1.6 km/h 9.7 km/h 83% 0 mm
01:15 14.1 °C 11.3 °C 1014.8 hPa Calm   6.4 km/h 83% 0 mm
01:20 14.2 °C 11.4 °C 1014.8 hPa Calm   3.2 km/h 83% 0 mm
01:25 14.3 °C 11.4 °C 1014.8 hPa Calm   3.2 km/h 83% 0 mm
01:30 14.3 °C 11.4 °C 1014.8 hPa Calm   4.8 km/h 83% 0 mm
01:35 14.4 °C 11.3 °C 1014.8 hPa Calm   4.8 km/h 82% 0 mm
01:40 14.5 °C 11.4 °C 1014.8 hPa Calm   1.6 km/h 82% 0 mm
01:45 14.5 °C 11.4 °C 1014.8 hPa Calm     82% 0 mm
01:50 14.5 °C 11.4 °C 1014.8 hPa SSW 1.6 km/h 6.4 km/h 82% 0 mm
01:55 14.4 °C 11.4 °C 1014.8 hPa Calm   6.4 km/h 82% 0 mm
02:00 14.3 °C 11.5 °C 1014.8 hPa Calm   1.6 km/h 83% 0 mm
02:05 14.2 °C 11.4 °C 1014.8 hPa Calm   1.6 km/h 83% 0 mm
02:10 14.3 °C 11.4 °C 1014.8 hPa Calm   1.6 km/h 83% 0 mm
02:15 14.3 °C 11.5 °C 1014.4 hPa Calm   1.6 km/h 83% 0 mm
02:20 14.4 °C 11.6 °C 1014.4 hPa Calm   1.6 km/h 83% 0 mm
02:25 14.4 °C 11.6 °C 1014.4 hPa Calm   1.6 km/h 83% 0 mm
02:30 14.3 °C 11.5 °C 1014.4 hPa Calm   1.6 km/h 83% 0 mm
02:35 14.3 °C 11.5 °C 1014.8 hPa Calm   1.6 km/h 83% 0 mm
02:40 14.2 °C 11.7 °C 1014.8 hPa Calm   1.6 km/h 85% 0 mm
02:45 14.2 °C 11.5 °C 1014.8 hPa SSW 1.6 km/h 4.8 km/h 84% 0 mm
02:50 14.1 °C 11.6 °C 1014.8 hPa Calm   4.8 km/h 85% 0 mm
02:55 14 °C 11.5 °C 1014.8 hPa Calm   1.6 km/h 85% 0 mm
03:00 13.9 °C 11.4 °C 1014.8 hPa Calm   4.8 km/h 85% 0 mm
03:05 13.9 °C 11.4 °C 1014.8 hPa SSW 1.6 km/h 6.4 km/h 85% 0 mm
03:10 14 °C 11.5 °C 1014.4 hPa Calm   6.4 km/h 85% 0 mm
03:15 14.1 °C 11.6 °C 1014.8 hPa Calm   4.8 km/h 85% 0 mm
03:20 14 °C 11.5 °C 1015.1 hPa Calm   1.6 km/h 85% 0 mm
03:25 14.1 °C 11.6 °C 1014.8 hPa Calm   1.6 km/h 85% 0 mm
03:30 14.1 °C 11.4 °C 1014.8 hPa Calm   1.6 km/h 84% 0 mm
03:35 14.1 °C 11.4 °C 1014.4 hPa Calm   1.6 km/h 84% 0 mm
03:40 14.1 °C 11.2 °C 1014.8 hPa Calm   1.6 km/h 83% 0 mm
03:45 14.1 °C 11.2 °C 1015.1 hPa Calm   4.8 km/h 83% 0 mm
03:50 14 °C 11.2 °C 1015.1 hPa Calm   4.8 km/h 83% 0 mm
03:55 13.9 °C 11.1 °C 1014.8 hPa Calm   1.6 km/h 83% 0 mm
04:00 13.8 °C 11 °C 1014.8 hPa Calm   1.6 km/h 83% 0 mm
04:05 13.8 °C 11.1 °C 1014.8 hPa Calm   1.6 km/h 84% 0 mm
04:10 13.6 °C 10.9 °C 1014.8 hPa Calm   1.6 km/h 84% 0 mm
04:15 13.6 °C 11.1 °C 1015.1 hPa SSW 1.6 km/h 8 km/h 85% 0 mm
04:20 13.5 °C 11.1 °C 1015.1 hPa Calm   8 km/h 85% 0 mm
04:30 13.5 °C 11.1 °C 1015.1 hPa Calm   4.8 km/h 85% 0 mm
04:35 13.5 °C 11.1 °C 1015.1 hPa Calm   4.8 km/h 85% 0 mm
04:40 13.4 °C 11 °C 1015.1 hPa Calm   1.6 km/h 85% 0 mm
04:45 13.3 °C 10.9 °C 1015.1 hPa Calm   1.6 km/h 85% 0 mm
04:50 13.3 °C 10.8 °C 1015.1 hPa Calm   3.2 km/h 85% 0 mm
04:55 13.3 °C 10.9 °C 1015.1 hPa SSW 1.6 km/h 4.8 km/h 85% 0 mm
05:00 13.4 °C 11 °C 1015.5 hPa SSW 1.6 km/h 8 km/h 85% 0 mm
05:05 13.7 °C 10.8 °C 1015.5 hPa Calm   8 km/h 83% 0 mm
05:10 13.8 °C 11 °C 1015.5 hPa Calm   6.4 km/h 83% 0 mm
05:15 13.9 °C 11.1 °C 1015.5 hPa Calm   4.8 km/h 83% 0 mm
05:20 13.9 °C 11.1 °C 1015.8 hPa Calm   1.6 km/h 83% 0 mm
05:25 13.9 °C 11.1 °C 1015.8 hPa Calm   1.6 km/h 83% 0 mm
05:30 13.9 °C 11.1 °C 1015.8 hPa Calm   1.6 km/h 83% 0 mm
05:35 13.9 °C 11.1 °C 1015.8 hPa Calm   4.8 km/h 83% 0 mm
05:40 13.9 °C 11.2 °C 1015.5 hPa Calm   4.8 km/h 84% 0 mm
05:45 13.8 °C 11.2 °C 1015.8 hPa Calm   1.6 km/h 84% 0 mm
05:50 13.9 °C 11.1 °C 1015.8 hPa SSW 1.6 km/h 6.4 km/h 83% 0 mm
05:55 14.1 °C 11.3 °C 1015.8 hPa Calm   6.4 km/h 83% 0 mm
06:00 14.3 °C 11.2 °C 1015.8 hPa Calm   6.4 km/h 82% 0 mm
06:05 14.4 °C 11.4 °C 1015.8 hPa Calm   3.2 km/h 82% 0 mm
06:10 14.6 °C 11.5 °C 1015.8 hPa SSW 1.6 km/h 6.4 km/h 82% 0 mm
06:15 14.7 °C 11.5 °C 1015.8 hPa SSW 1.6 km/h 6.4 km/h 81% 0 mm
06:20 15 °C 11.8 °C 1015.8 hPa Calm   4.8 km/h 81% 0 mm
06:25 15 °C 11.8 °C 1015.8 hPa Calm   4.8 km/h 81% 0 mm
06:30 15.2 °C 11.7 °C 1015.8 hPa SSW 1.6 km/h 6.4 km/h 80% 0 mm
06:35 15.3 °C 12.1 °C 1015.8 hPa Calm   6.4 km/h 81% 0 mm
06:40 15.4 °C 11.9 °C 1015.8 hPa Calm   4.8 km/h 80% 0 mm
06:45 15.4 °C 11.8 °C 1015.8 hPa SSW 1.6 km/h 6.4 km/h 79% 0 mm
06:50 15.6 °C 11.9 °C 1015.8 hPa Calm   6.4 km/h 79% 0 mm
06:55 15.7 °C 12.2 °C 1015.8 hPa Calm   6.4 km/h 80% 0 mm
07:00 15.8 °C 12.2 °C 1015.8 hPa SSW 1.6 km/h 6.4 km/h 79% 0 mm
07:05 15.9 °C 12.3 °C 1015.8 hPa Calm   6.4 km/h 79% 0 mm
07:10 16 °C 12.6 °C 1015.8 hPa Calm   6.4 km/h 80% 0 mm
07:15 16.1 °C 12.3 °C 1015.8 hPa SSW 1.6 km/h 8 km/h 78% 0 mm
07:20 16.2 °C 12.4 °C 1015.8 hPa Calm   8 km/h 78% 0 mm
07:25 16.3 °C 12.4 °C 1015.8 hPa Calm   6.4 km/h 78% 0 mm
07:30 16.4 °C 12.6 °C 1015.8 hPa Calm   1.6 km/h 78% 0 mm
07:35 16.5 °C 12.8 °C 1015.8 hPa SSW 1.6 km/h 6.4 km/h 79% 0 mm
07:40 16.8 °C 12.7 °C 1015.8 hPa SW 1.6 km/h 8 km/h 77% 0 mm
07:45 17.1 °C 12.8 °C 1015.8 hPa SW 1.6 km/h 8 km/h 76% 0 mm
07:50 17.4 °C 13.2 °C 1016.1 hPa Calm   8 km/h 76% 0 mm
07:55 17.9 °C 13.2 °C 1016.1 hPa SSW 1.6 km/h 11.3 km/h 74% 0 mm
08:00 18.1 °C 13.2 °C 1016.1 hPa SW 1.6 km/h 11.3 km/h 73% 0 mm
08:05 18.2 °C 13.3 °C 1016.1 hPa SSW 1.6 km/h 11.3 km/h 73% 0 mm
08:10 18.3 °C 13.6 °C 1016.1 hPa SSW 3.2 km/h 9.7 km/h 74% 0 mm
08:15 18.3 °C 13 °C 1016.1 hPa SW 3.2 km/h 11.3 km/h 71% 0 mm
08:20 18.3 °C 13 °C 1016.1 hPa SW 3.2 km/h 12.9 km/h 71% 0 mm
08:25 18.6 °C 13.4 °C 1016.1 hPa SSW 3.2 km/h 12.9 km/h 72% 0 mm
08:30 18.7 °C 13.1 °C 1016.1 hPa SW 3.2 km/h 14.5 km/h 70% 0 mm
08:35 18.7 °C 13.3 °C 1016.1 hPa SSW 1.6 km/h 14.5 km/h 71% 0 mm
08:40 18.6 °C 13.2 °C 1016.1 hPa SW 3.2 km/h 12.9 km/h 71% 0 mm
08:45 18.6 °C 13.6 °C 1016.1 hPa Calm   9.7 km/h 73% 0 mm
08:50 18.6 °C 13.6 °C 1016.1 hPa SW 3.2 km/h 9.7 km/h 73% 0 mm
08:55 18.6 °C 13.6 °C 1016.1 hPa Calm   9.7 km/h 73% 0 mm
09:00 18.6 °C 13.4 °C 1016.1 hPa SW 3.2 km/h 9.7 km/h 72% 0 mm
09:05 18.7 °C 13.5 °C 1016.1 hPa SW 3.2 km/h 9.7 km/h 72% 0 mm
09:10 18.8 °C 13.9 °C 1016.1 hPa SW 1.6 km/h 9.7 km/h 73% 0 mm
09:15 18.9 °C 13.5 °C 1016.1 hPa Calm   11.3 km/h 71% 0 mm
09:20 19.4 °C 15.1 °C 1016.1 hPa Calm   11.3 km/h 76% 0 mm
09:25 20.1 °C 14.3 °C 1016.1 hPa SW 4.8 km/h 12.9 km/h 69% 0 mm
09:30 20.6 °C 14.9 °C 1016.1 hPa SSW 3.2 km/h 12.9 km/h 70% 0 mm
09:35 20.9 °C 15.2 °C 1016.1 hPa SW 3.2 km/h 12.9 km/h 70% 0 mm
09:40 21.2 °C 15.9 °C 1016.1 hPa Calm   14.5 km/h 72% 0 mm
09:45 21.5 °C 15.3 °C 1016.1 hPa SSW 1.6 km/h 14.5 km/h 68% 0 mm
09:50 21.4 °C 14.6 °C 1016.5 hPa SW 6.4 km/h 16.1 km/h 65% 0 mm
09:55 21.6 °C 14.7 °C 1016.1 hPa SW 4.8 km/h 16.1 km/h 65% 0 mm
10:00 21.3 °C 14.3 °C 1016.1 hPa SW 1.6 km/h 14.5 km/h 64% 0 mm
10:05 21.3 °C 14.4 °C 1016.1 hPa SW 1.6 km/h 14.5 km/h 65% 0 mm
10:10 21.4 °C 14.8 °C 1016.1 hPa SW 1.6 km/h 12.9 km/h 66% 0 mm
10:15 21.8 °C 14.4 °C 1016.1 hPa SW 4.8 km/h 9.7 km/h 63% 0 mm
10:20 21.8 °C 14.5 °C 1016.1 hPa SW 3.2 km/h 16.1 km/h 63% 0 mm
10:25 22.1 °C 16.3 °C 1016.1 hPa Calm   16.1 km/h 70% 0 mm
10:30 22.5 °C 16.1 °C 1016.1 hPa SSW 3.2 km/h 14.5 km/h 67% 0 mm
10:35 22.8 °C 15.7 °C 1016.1 hPa Calm   11.3 km/h 64% 0 mm
10:40 23.1 °C 15.1 °C 1016.1 hPa Calm   11.3 km/h 61% 0 mm
10:45 23.3 °C 17.5 °C 1015.8 hPa Calm   11.3 km/h 70% 0 mm
10:50 23.6 °C 15.3 °C 1015.8 hPa SW 1.6 km/h 11.3 km/h 60% 0 mm
10:55 23.5 °C 15.8 °C 1015.8 hPa Calm   11.3 km/h 62% 0 mm
11:00 23.6 °C 15.7 °C 1015.8 hPa SW 3.2 km/h 12.9 km/h 61% 0 mm
11:05 23.3 °C 15.4 °C 1015.8 hPa SSW 4.8 km/h 12.9 km/h 61% 0 mm
11:10 23.3 °C 15.7 °C 1015.8 hPa SSW 4.8 km/h 12.9 km/h 62% 0 mm
11:15 23.7 °C 15.4 °C 1015.8 hPa SSW 1.6 km/h 12.9 km/h 60% 0 mm
11:20 23.8 °C 15.6 °C 1015.8 hPa SW 3.2 km/h 14.5 km/h 60% 0 mm
11:25 23.9 °C 15.2 °C 1015.8 hPa SSW 1.6 km/h 14.5 km/h 58% 0 mm
11:30 24.1 °C 15.6 °C 1015.5 hPa Calm   9.7 km/h 59% 0 mm
11:35 24.2 °C 15.2 °C 1015.5 hPa SW 3.2 km/h 11.3 km/h 57% 0 mm
11:40 24.2 °C 14.6 °C 1015.5 hPa SSW 3.2 km/h 12.9 km/h 55% 0 mm
11:45 24.4 °C 15.7 °C 1015.5 hPa SSE 1.6 km/h 12.9 km/h 58% 0 mm
11:50 24.7 °C 15.6 °C 1015.5 hPa SW 1.6 km/h 11.3 km/h 57% 0 mm
11:55 24.7 °C 15.3 °C 1015.5 hPa SSW 4.8 km/h 9.7 km/h 56% 0 mm
12:00 24.7 °C 15.7 °C 1015.1 hPa SSE 1.6 km/h 16.1 km/h 57% 0 mm
12:05 24.8 °C 15.1 °C 1015.1 hPa SSW 4.8 km/h 16.1 km/h 55% 0 mm
12:10 24.8 °C 16.8 °C 1014.8 hPa SE 1.6 km/h 14.5 km/h 61% 0 mm
12:15 24.8 °C 15.2 °C 1014.8 hPa SW 4.8 km/h 14.5 km/h 55% 0 mm
12:20 24.8 °C 15.4 °C 1014.8 hPa Calm   12.9 km/h 56% 0 mm
12:25 24.8 °C 14.3 °C 1014.8 hPa SSW 6.4 km/h 16.1 km/h 52% 0 mm
12:30 24.8 °C 15.2 °C 1015.1 hPa SSW 3.2 km/h 16.1 km/h 55% 0 mm
12:35 24.8 °C 14.6 °C 1014.8 hPa SW 6.4 km/h 14.5 km/h 53% 0 mm
12:40 24.9 °C 15 °C 1014.8 hPa SW 6.4 km/h 14.5 km/h 54% 0 mm
12:45 25.1 °C 15.1 °C 1014.8 hPa South 4.8 km/h 16.1 km/h 54% 0 mm
12:50 25.2 °C 16.1 °C 1014.8 hPa SW 3.2 km/h 16.1 km/h 57% 0 mm
12:55 25.3 °C 15.3 °C 1014.8 hPa SW 4.8 km/h 12.9 km/h 54% 0 mm
13:00 25.4 °C 15.1 °C 1014.4 hPa SW 4.8 km/h 12.9 km/h 53% 0 mm
13:05 25.3 °C 15.4 °C 1014.4 hPa West 1.6 km/h 16.1 km/h 54% 0 mm
13:10 25.4 °C 14.8 °C 1014.4 hPa SSW 3.2 km/h 17.7 km/h 52% 0 mm
13:15 25.6 °C 16.2 °C 1014.4 hPa SW 3.2 km/h 17.7 km/h 56% 0 mm
13:20 25.7 °C 14.5 °C 1014.4 hPa SW 9.7 km/h 17.7 km/h 50% 0 mm
13:25 25.7 °C 15.2 °C 1014.1 hPa SW 4.8 km/h 17.7 km/h 52% 0 mm
13:30 25.9 °C 15.9 °C 1014.4 hPa SSW 3.2 km/h 16.1 km/h 54% 0 mm
13:40 26.1 °C 16.9 °C 1014.1 hPa Calm   14.5 km/h 57% 0 mm
13:45 26.2 °C 15.2 °C 1014.1 hPa SSW 3.2 km/h 11.3 km/h 51% 0 mm
13:50 26.3 °C 16.6 °C 1014.1 hPa Calm   11.3 km/h 55% 0 mm
13:55 26.5 °C 16.7 °C 1014.1 hPa Calm   9.7 km/h 55% 0 mm
14:00 26.3 °C 14.8 °C 1014.1 hPa SSW 3.2 km/h 14.5 km/h 49% 0 mm
14:05 26.3 °C 16.2 °C 1014.1 hPa SSW 3.2 km/h 14.5 km/h 54% 0 mm
14:10 26.3 °C 16 °C 1014.1 hPa WSW 1.6 km/h 16.1 km/h 53% 0 mm
14:15 26.7 °C 16 °C 1014.1 hPa SSW 1.6 km/h 16.1 km/h 52% 0 mm
14:20 26.6 °C 15.7 °C 1014.1 hPa WSW 1.6 km/h 16.1 km/h 51% 0 mm
14:25 26.2 °C 17.1 °C 1013.8 hPa Calm   16.1 km/h 57% 0 mm
14:30 26.2 °C 16.2 °C 1013.8 hPa SW 1.6 km/h 11.3 km/h 54% 0 mm
14:35 26.1 °C 14.8 °C 1013.8 hPa SW 6.4 km/h 14.5 km/h 50% 0 mm
14:40 26.2 °C 17.1 °C 1013.8 hPa SW 3.2 km/h 14.5 km/h 57% 0 mm
14:45 26.5 °C 16.4 °C 1013.8 hPa SW 1.6 km/h 12.9 km/h 54% 0 mm
14:50 26.8 °C 15.6 °C 1013.8 hPa SSW 1.6 km/h 12.9 km/h 50% 0 mm
14:55 26.8 °C 15.8 °C 1013.8 hPa SW 3.2 km/h 17.7 km/h 51% 0 mm
15:00 26.4 °C 16.3 °C 1013.8 hPa SW 1.6 km/h 17.7 km/h 54% 0 mm
15:05 25.9 °C 15.7 °C 1013.8 hPa Calm   14.5 km/h 53% 0 mm
15:10 25.9 °C 16.2 °C 1013.8 hPa SW 1.6 km/h 12.9 km/h 55% 0 mm
15:15 26.3 °C 17.1 °C 1013.8 hPa SW 3.2 km/h 11.3 km/h 57% 0 mm
15:20 26.7 °C 16.3 °C 1013.8 hPa SSW 4.8 km/h 14.5 km/h 53% 0 mm
15:25 26.8 °C 15.8 °C 1013.4 hPa SSW 6.4 km/h 16.1 km/h 51% 0 mm
15:35 26.8 °C 15.8 °C 1013.4 hPa SSW 4.8 km/h 14.5 km/h 51% 0 mm
15:40 26.5 °C 15.8 °C 1013.4 hPa SSW 3.2 km/h 14.5 km/h 52% 0 mm
15:45 26.4 °C 15.5 °C 1013.4 hPa SW 8 km/h 17.7 km/h 51% 0 mm
15:50 26.4 °C 16.3 °C 1013.1 hPa SSW 1.6 km/h 17.7 km/h 54% 0 mm
15:55 26.5 °C 15.8 °C 1013.1 hPa SSW 4.8 km/h 17.7 km/h 52% 0 mm
16:00 26.4 °C 16.1 °C 1013.1 hPa SSW 3.2 km/h 17.7 km/h 53% 0 mm
16:05 26.2 °C 15.6 °C 1013.1 hPa SSW 3.2 km/h 19.3 km/h 52% 0 mm
16:10 25.9 °C 15.3 °C 1013.1 hPa WSW 4.8 km/h 19.3 km/h 52% 0 mm
16:15 25.9 °C 16.8 °C 1013.1 hPa Calm   12.9 km/h 57% 0 mm
16:25 25.4 °C 15.4 °C 1013.1 hPa SSW 3.2 km/h 16.1 km/h 54% 0 mm
16:30 25.1 °C 15.7 °C 1013.1 hPa SW 1.6 km/h 16.1 km/h 56% 0 mm
16:35 25 °C 15.9 °C 1013.1 hPa Calm   16.1 km/h 57% 0 mm
16:40 25.2 °C 16.4 °C 1013.1 hPa Calm   12.9 km/h 58% 0 mm
16:45 25.4 °C 16.8 °C 1012.8 hPa SW 1.6 km/h 12.9 km/h 59% 0 mm
16:50 25.4 °C 16.1 °C 1012.8 hPa SSW 1.6 km/h 11.3 km/h 56% 0 mm
16:55 25.4 °C 16.6 °C 1013.1 hPa South 1.6 km/h 12.9 km/h 58% 0 mm
17:00 25.3 °C 16.2 °C 1012.8 hPa SSW 1.6 km/h 12.9 km/h 57% 0 mm
17:05 25.5 °C 16.4 °C 1012.8 hPa SSW 1.6 km/h 12.9 km/h 57% 0 mm
17:10 25.9 °C 16.8 °C 1012.8 hPa SSW 4.8 km/h 14.5 km/h 57% 0 mm
17:15 26.2 °C 16.8 °C 1012.8 hPa South 3.2 km/h 14.5 km/h 56% 0 mm
17:20 26.5 °C 17 °C 1012.8 hPa South 1.6 km/h 11.3 km/h 56% 0 mm
17:25 26.8 °C 16.7 °C 1012.8 hPa SSW 3.2 km/h 14.5 km/h 54% 0 mm
17:30 26.7 °C 16 °C 1012.4 hPa SW 3.2 km/h 16.1 km/h 52% 0 mm
17:35 26.1 °C 16.3 °C 1012.8 hPa SSW 1.6 km/h 17.7 km/h 55% 0 mm
17:40 25.6 °C 15.3 °C 1012.4 hPa SSW 6.4 km/h 17.7 km/h 53% 0 mm
17:45 25.1 °C 15.9 °C 1012.4 hPa SW 1.6 km/h 14.5 km/h 57% 0 mm
17:50 24.9 °C 15.8 °C 1012.4 hPa SSW 1.6 km/h 12.9 km/h 57% 0 mm
17:55 24.7 °C 15.9 °C 1012.4 hPa SSW 1.6 km/h 9.7 km/h 58% 0 mm
18:00 24.7 °C 15.9 °C 1012.4 hPa SSW 3.2 km/h 14.5 km/h 58% 0 mm
18:05 24.9 °C 16.9 °C 1012.4 hPa Calm   14.5 km/h 61% 0 mm
18:10 25.3 °C 16.2 °C 1012.4 hPa SSW 6.4 km/h 12.9 km/h 57% 0 mm
18:15 25.7 °C 16.5 °C 1012.4 hPa SSW 4.8 km/h 14.5 km/h 57% 0 mm
18:20 25.8 °C 16.1 °C 1012.4 hPa SSW 3.2 km/h 16.1 km/h 55% 0 mm
18:25 25.6 °C 15.8 °C 1012.4 hPa Calm   20.9 km/h 55% 0 mm
18:30 25.4 °C 16 °C 1012.4 hPa SSW 1.6 km/h 22.5 km/h 56% 0 mm
18:35 25.4 °C 15.7 °C 1012.4 hPa SW 4.8 km/h 22.5 km/h 55% 0 mm
18:40 25.3 °C 15.4 °C 1012.4 hPa SW 9.7 km/h 17.7 km/h 54% 0 mm
18:45 25.2 °C 16.1 °C 1012.4 hPa SSW 1.6 km/h 17.7 km/h 57% 0 mm
18:50 25 °C 15.6 °C 1012.4 hPa SW 3.2 km/h 20.9 km/h 56% 0 mm
18:55 24.8 °C 15.1 °C 1012.4 hPa SSW 1.6 km/h 20.9 km/h 55% 0 mm
19:00 24.6 °C 15.6 °C 1012.4 hPa SSW 3.2 km/h 17.7 km/h 57% 0 mm
19:05 24.4 °C 15.3 °C 1012.4 hPa SSW 4.8 km/h 17.7 km/h 57% 0 mm
19:10 23.9 °C 15.2 °C 1012.4 hPa SW 4.8 km/h 16.1 km/h 58% 0 mm
19:15 23.6 °C 15.1 °C 1012.4 hPa SSW 6.4 km/h 19.3 km/h 59% 0 mm
19:20 23.2 °C 15.3 °C 1012.4 hPa South 1.6 km/h 19.3 km/h 61% 0 mm
19:25 23.1 °C 15.1 °C 1012.8 hPa SSW 1.6 km/h 14.5 km/h 61% 0 mm
19:30 22.9 °C 15 °C 1012.8 hPa SSW 1.6 km/h 12.9 km/h 61% 0 mm
19:35 22.8 °C 15.1 °C 1012.4 hPa SW 3.2 km/h 14.5 km/h 62% 0 mm
19:40 22.7 °C 15.1 °C 1012.4 hPa SW 3.2 km/h 17.7 km/h 62% 0 mm
19:45 22.7 °C 15 °C 1012.4 hPa SSW 1.6 km/h 17.7 km/h 62% 0 mm
19:50 22.7 °C 15.3 °C 1012.4 hPa SSW 3.2 km/h 14.5 km/h 63% 0 mm
19:55 22.8 °C 15.4 °C 1012.4 hPa SSW 3.2 km/h 14.5 km/h 63% 0 mm
20:00 22.7 °C 15.3 °C 1012.4 hPa Calm   14.5 km/h 63% 0 mm
20:05 22.6 °C 15.2 °C 1012.4 hPa SSW 3.2 km/h 14.5 km/h 63% 0 mm
20:10 22.6 °C 15.2 °C 1012.4 hPa SSW 3.2 km/h 9.7 km/h 63% 0 mm
20:15 22.6 °C 15.2 °C 1012.4 hPa SSW 3.2 km/h 12.9 km/h 63% 0 mm
20:20 22.4 °C 15.1 °C 1012.1 hPa SW 3.2 km/h 16.1 km/h 63% 0 mm
20:25 22.4 °C 15 °C 1012.4 hPa SSW 3.2 km/h 16.1 km/h 63% 0 mm
20:30 22.3 °C 14.9 °C 1012.1 hPa SSW 3.2 km/h 12.9 km/h 63% 0 mm
20:35 22.3 °C 14.9 °C 1012.1 hPa SW 3.2 km/h 12.9 km/h 63% 0 mm
20:40 22.2 °C 15.1 °C 1012.4 hPa SSW 3.2 km/h 17.7 km/h 64% 0 mm
20:45 22.2 °C 15.1 °C 1012.4 hPa Calm   17.7 km/h 64% 0 mm
20:50 22.2 °C 15.1 °C 1012.4 hPa SSW 3.2 km/h 16.1 km/h 64% 0 mm
20:55 22.1 °C 15 °C 1012.4 hPa SW 3.2 km/h 16.1 km/h 64% 0 mm
21:00 22.1 °C 15 °C 1012.4 hPa SW 4.8 km/h 16.1 km/h 64% 0 mm
21:05 22.1 °C 14.9 °C 1012.4 hPa SW 3.2 km/h 16.1 km/h 64% 0 mm
21:10 22.1 °C 14.9 °C 1012.4 hPa SSW 1.6 km/h 12.9 km/h 64% 0 mm
21:15 21.9 °C 14.8 °C 1012.4 hPa SSW 3.2 km/h 14.5 km/h 64% 0 mm
21:20 21.9 °C 14.8 °C 1012.4 hPa SSW 1.6 km/h 14.5 km/h 64% 0 mm
21:25 21.9 °C 15 °C 1012.4 hPa SW 4.8 km/h 12.9 km/h 65% 0 mm
21:30 21.9 °C 15 °C 1012.4 hPa SSW 3.2 km/h 16.1 km/h 65% 0 mm
21:35 21.8 °C 14.9 °C 1012.4 hPa SSW 1.6 km/h 16.1 km/h 65% 0 mm
21:40 21.8 °C 14.9 °C 1012.4 hPa SSW 3.2 km/h 12.9 km/h 65% 0 mm
21:45 21.8 °C 14.9 °C 1012.4 hPa SW 4.8 km/h 12.9 km/h 65% 0 mm
21:50 21.7 °C 14.9 °C 1012.4 hPa SW 3.2 km/h 14.5 km/h 65% 0 mm
21:55 21.6 °C 15 °C 1012.1 hPa SSW 4.8 km/h 14.5 km/h 66% 0 mm
22:00 21.6 °C 14.7 °C 1012.1 hPa SSW 3.2 km/h 12.9 km/h 65% 0 mm
22:05 21.6 °C 14.7 °C 1012.1 hPa SSW 3.2 km/h 12.9 km/h 65% 0 mm
22:10 21.5 °C 14.9 °C 1012.1 hPa SSW 1.6 km/h 11.3 km/h 66% 0 mm
22:15 21.4 °C 14.8 °C 1012.1 hPa SW 3.2 km/h 11.3 km/h 66% 0 mm
22:20 21.4 °C 14.6 °C 1012.1 hPa SW 4.8 km/h 11.3 km/h 65% 0 mm
22:25 21.4 °C 14.6 °C 1012.1 hPa SSW 3.2 km/h 11.3 km/h 65% 0 mm
22:30 21.4 °C 14.6 °C 1012.1 hPa SW 4.8 km/h 11.3 km/h 65% 0 mm
22:35 21.3 °C 14.5 °C 1012.1 hPa SW 4.8 km/h 16.1 km/h 65% 0 mm
22:40 21.4 °C 14.3 °C 1012.1 hPa SSW 6.4 km/h 16.1 km/h 64% 0 mm
22:45 21.3 °C 14.5 °C 1012.1 hPa SSW 1.6 km/h 14.5 km/h 65% 0 mm
22:50 21.3 °C 14.4 °C 1012.1 hPa SW 1.6 km/h 11.3 km/h 65% 0 mm
22:55 21.2 °C 14.3 °C 1011.7 hPa SSW 6.4 km/h 12.9 km/h 65% 0 mm
23:00 21.2 °C 14.4 °C 1011.7 hPa SSW 3.2 km/h 12.9 km/h 65% 0 mm
23:05 21.2 °C 14.3 °C 1011.7 hPa SSW 1.6 km/h 11.3 km/h 65% 0 mm
23:10 21.1 °C 14.5 °C 1011.7 hPa SW 1.6 km/h 12.9 km/h 66% 0 mm
23:15 21.1 °C 14.2 °C 1011.7 hPa SSW 3.2 km/h 12.9 km/h 65% 0 mm
23:20 21 °C 14.4 °C 1011.7 hPa SSW 3.2 km/h 12.9 km/h 66% 0 mm
23:25 20.9 °C 14.3 °C 1011.7 hPa SSW 1.6 km/h 11.3 km/h 66% 0 mm
23:30 20.8 °C 14.3 °C 1011.7 hPa SSW 1.6 km/h 11.3 km/h 66% 0 mm
23:35 20.7 °C 14.4 °C 1011.7 hPa SSW 3.2 km/h 12.9 km/h 67% 0 mm
23:40 20.7 °C 14.3 °C 1011.7 hPa SSW 1.6 km/h 12.9 km/h 67% 0 mm
23:45 20.6 °C 14.3 °C 1011.7 hPa SSW 3.2 km/h 11.3 km/h 67% 0 mm
23:50 20.6 °C 14.3 °C 1011.7 hPa SSW 3.2 km/h 11.3 km/h 67% 0 mm
23:55 20.6 °C 14.3 °C 1011.7 hPa SSW 4.8 km/h 11.3 km/h 67% 0 mm
Westford Weather
Compliments of Weather Underground

 
 
Current Radar Loop:

Copyright © WestfordWeather.net 2007-2014. All rights reserved.